.
WxDataArchive / Data Records for 2012-03-26
2012-03-25 March 2012 2012-03-27

Data Records for Monday, 26 March 2012

Time	Temp	Chill	HIndex	Humid	Dewpt	 Wind 	HiWind	WindDir	Rain 	Barom 
-----	----	-----	------	-----	-----	------	------	-------	-----	----- 
00:00	54.4	54.4	54.4	65	42.9	0	2	270	0.00	30.040 
00:05	54.2	54.2	54.2	65	42.7	0	1	270	0.00	30.040 
00:10	54.1	54.1	54.1	65	42.6	0	3	270	0.00	30.040 
00:15	53.9	53.9	53.9	65	42.4	0	4	270	0.00	30.040 
00:20	53.8	53.8	53.8	65	42.3	1	4	270	0.00	30.040 
00:25	53.6	53.6	53.6	65	42.1	0	3	270	0.00	30.040 
00:30	53.6	53.6	53.6	65	42.1	1	5	315	0.00	30.049 
00:35	53.5	53.5	53.5	65	42.0	1	3	0	0.00	30.049 
00:40	53.3	53.3	53.3	65	41.8	0	1	338	0.00	30.049 
00:45	53.1	53.1	53.1	66	42.0	1	6	0	0.00	30.054 
00:50	52.9	52.9	52.9	66	41.9	0	1	270	0.00	30.054 
00:55	52.9	52.9	52.9	67	42.2	0	3	315	0.00	30.054 
01:00	52.8	52.8	52.8	67	42.1	0	3	315	0.00	30.056 
01:05	52.8	52.8	52.8	67	42.1	1	3	315	0.00	30.056 
01:10	52.6	52.6	52.6	68	42.3	0	3	248	0.00	30.056 
01:15	52.5	52.5	52.5	69	42.6	0	2	292	0.00	30.060 
01:20	52.3	52.3	52.3	68	42.1	0	4	292	0.00	30.060 
01:25	52.3	52.3	52.3	68	42.1	0	3	270	0.00	30.060 
01:30	52.3	52.3	52.3	67	41.7	0	3	0	0.00	30.068 
01:35	52.3	52.3	52.3	66	41.3	0	3	315	0.00	30.068 
01:40	52.2	52.2	52.2	66	41.2	0	2	315	0.00	30.068 
01:45	51.9	51.9	51.9	63	39.7	0	2	315	0.00	30.069 
01:50	51.6	51.6	51.6	61	38.6	0	2	45	0.00	30.069 
01:55	51.6	51.6	51.6	57	36.9	0	5	0	0.00	30.069 
02:00	51.4	51.4	51.4	53	34.8	0	1	0	0.00	30.074 
02:05	51.3	51.3	51.3	47	31.8	0	2	0	0.00	30.074 
02:10	51.3	51.3	51.3	46	31.2	0	3	338	0.00	30.074 
02:15	51.1	51.1	51.1	47	31.6	0	3	45	0.00	30.079 
02:20	51.0	51.0	51.0	47	31.5	0	1	45	0.00	30.079 
02:25	50.7	50.7	50.7	48	31.7	0	1	45	0.00	30.079 
02:30	50.5	50.5	50.5	48	31.5	0	3	180	0.00	30.081 
02:35	50.2	50.2	50.2	48	31.3	0	3	315	0.00	30.081 
02:40	49.9	49.9	49.9	49	31.5	1	5	112	0.00	30.081 
02:45	49.6	49.6	49.6	50	31.7	0	3	68	0.00	30.087 
02:50	49.5	49.5	49.5	51	32.1	0	3	338	0.00	30.087 
02:55	49.2	49.2	49.2	52	32.3	0	1	338	0.00	30.087 
03:00	48.9	48.9	48.9	53	32.5	0	1	338	0.00	30.090 
03:05	48.6	48.6	48.6	53	32.3	0	1	338	0.00	30.090 
03:10	48.3	48.3	48.3	54	32.4	0	1	338	0.00	30.090 
03:15	48.0	48.0	48.0	56	33.1	0	0	---	0.00	30.094 
03:20	47.7	47.7	47.7	56	32.8	0	1	338	0.00	30.094 
03:25	47.4	47.4	47.4	57	32.9	0	1	338	0.00	30.094 
03:30	47.1	47.1	47.1	57	32.7	0	1	338	0.00	30.097 
03:35	47.0	47.0	47.0	58	33.0	0	1	338	0.00	30.097 
03:40	46.8	46.8	46.8	58	32.8	0	2	135	0.00	30.097 
03:45	46.7	46.7	46.7	58	32.7	0	2	0	0.00	30.099 
03:50	46.7	46.7	46.7	58	32.7	0	2	0	0.00	30.099 
03:55	46.4	46.4	46.4	58	32.4	0	1	292	0.00	30.099 
04:00	46.2	46.2	46.2	58	32.2	0	1	292	0.00	30.103 
04:05	46.2	46.2	46.2	57	31.8	0	2	315	0.00	30.103 
04:10	46.1	46.1	46.1	58	32.2	0	2	315	0.00	30.103 
04:15	46.0	46.0	46.0	58	32.1	0	1	338	0.00	30.107 
04:20	45.8	45.8	45.8	60	32.7	0	2	0	0.00	30.107 
04:25	45.7	45.7	45.7	60	32.6	0	3	0	0.00	30.107 
04:30	45.5	45.5	45.5	60	32.4	0	1	0	0.00	30.111 
04:35	45.2	45.2	45.2	61	32.6	0	2	315	0.00	30.111 
04:40	44.9	44.9	44.9	61	32.3	0	3	0	0.00	30.111 
04:45	44.8	44.8	44.8	59	31.4	1	3	0	0.00	30.121 
04:50	44.5	44.5	44.5	58	30.7	0	2	338	0.00	30.121 
04:55	44.3	44.3	44.3	58	30.5	0	1	0	0.00	30.121 
05:00	44.1	44.1	44.1	58	30.3	0	2	0	0.00	30.135 
05:05	43.9	43.9	43.9	58	30.1	0	1	0	0.00	30.135 
05:10	43.6	43.6	43.6	58	29.8	0	1	0	0.00	30.135 
05:15	43.5	43.5	43.5	58	29.7	0	6	292	0.00	30.141 
05:20	43.3	43.3	43.3	58	29.5	0	2	68	0.00	30.141 
05:25	43.2	43.2	43.2	59	29.9	0	2	270	0.00	30.141 
05:30	43.1	43.1	43.1	60	30.2	0	3	270	0.00	30.148 
05:35	42.8	42.8	42.8	60	29.9	0	1	270	0.00	30.148 
05:40	42.5	42.5	42.5	61	30.0	0	3	270	0.00	30.148 
05:45	42.3	42.3	42.3	61	29.8	0	3	45	0.00	30.155 
05:50	42.1	42.1	42.1	62	30.0	0	1	45	0.00	30.155 
05:55	41.8	41.8	41.8	62	29.7	1	4	22	0.00	30.155 
06:00	41.5	41.5	41.5	62	29.5	0	3	270	0.00	30.160 
06:05	41.2	41.2	41.2	63	29.6	0	2	270	0.00	30.160 
06:10	41.1	41.1	41.1	64	29.9	0	4	270	0.00	30.160 
06:15	40.8	40.8	40.8	65	30.0	0	2	248	0.00	30.174 
06:20	40.6	40.6	40.6	65	29.8	0	2	248	0.00	30.174 
06:25	40.5	40.5	40.5	66	30.0	0	2	248	0.00	30.174 
06:30	40.2	40.2	40.2	67	30.1	0	2	135	0.00	30.183 
06:35	40.1	40.1	40.1	68	30.4	0	1	338	0.00	30.183 
06:40	39.9	39.9	39.9	69	30.6	1	3	338	0.00	30.183 
06:45	39.6	39.6	39.6	69	30.3	0	3	90	0.00	30.188 
06:50	39.5	39.5	39.5	70	30.5	0	4	135	0.00	30.188 
06:55	39.3	39.3	39.3	71	30.7	0	2	0	0.00	30.188 
07:00	39.1	39.1	39.1	72	30.8	0	2	135	0.00	30.200 
07:05	38.9	38.9	38.9	72	30.7	0	2	22	0.00	30.200 
07:10	38.6	38.6	38.6	72	30.4	1	5	22	0.00	30.200 
07:15	38.5	38.5	38.5	72	30.3	1	4	68	0.00	30.208 
07:20	38.3	38.3	38.3	72	30.1	1	5	270	0.00	30.208 
07:25	38.2	38.2	38.2	71	29.6	1	6	112	0.00	30.208 
07:30	38.0	38.0	38.0	72	29.8	1	4	135	0.00	30.223 
07:35	37.9	37.9	37.9	72	29.7	1	3	315	0.00	30.223 
07:40	37.8	37.8	37.8	73	29.9	0	3	90	0.00	30.223 
07:45	37.6	37.6	37.6	73	29.7	0	3	112	0.00	30.237 
07:50	37.6	37.6	37.6	73	29.7	0	2	112	0.00	30.237 
07:55	37.6	37.6	37.6	73	29.7	0	2	112	0.00	30.237 
08:00	37.5	37.5	37.5	72	29.3	1	3	68	0.00	30.255 
08:05	37.5	37.5	37.5	72	29.3	0	2	0	0.00	30.255 
08:10	37.6	37.6	37.6	72	29.4	0	3	135	0.00	30.255 
08:15	37.6	37.6	37.6	72	29.4	1	4	112	0.00	30.274 
08:20	37.5	37.5	37.5	71	29.0	0	2	68	0.00	30.274 
08:25	37.5	37.5	37.5	71	29.0	0	2	68	0.00	30.274 
08:30	37.3	37.3	37.3	71	28.8	0	3	0	0.00	30.273 
08:35	37.3	37.3	37.3	71	28.8	1	5	22	0.00	30.273 
08:40	37.3	37.3	37.3	71	28.8	1	5	45	0.00	30.273 
08:45	37.3	37.3	37.3	71	28.8	1	5	90	0.00	30.284 
08:50	37.5	37.5	37.5	71	29.0	0	2	0	0.00	30.284 
08:55	37.8	37.8	37.8	71	29.3	0	1	0	0.00	30.284 
09:00	37.9	37.9	37.9	70	29.0	1	4	45	0.00	30.295 
09:05	38.0	38.0	38.0	69	28.7	1	4	112	0.00	30.295 
09:10	38.0	38.0	38.0	69	28.7	1	5	90	0.00	30.295 
09:15	38.3	38.3	38.3	69	29.0	1	5	22	0.00	30.295 
09:20	38.3	38.3	38.3	68	28.7	1	9	45	0.00	30.295 
09:25	38.5	38.5	38.5	68	28.9	1	5	68	0.00	30.295 
09:30	38.8	38.8	38.8	68	29.2	1	6	68	0.00	30.308 
09:35	38.8	38.8	38.8	67	28.8	1	11	0	0.00	30.308 
09:40	38.8	38.8	38.8	67	28.8	1	4	135	0.00	30.308 
09:45	38.8	38.8	38.8	67	28.8	1	10	90	0.00	30.308 
09:50	39.1	39.1	39.1	66	28.7	1	5	45	0.00	30.308 
09:55	39.6	39.6	39.6	65	28.8	1	4	45	0.00	30.308 
10:00	40.2	40.2	40.2	64	29.0	1	4	68	0.00	30.312 
10:05	40.5	40.5	40.5	61	28.1	1	3	112	0.00	30.312 
10:10	40.2	40.2	40.2	62	28.2	1	3	315	0.00	30.312 
10:15	40.6	40.6	40.6	63	29.0	1	5	68	0.00	30.322 
10:20	41.1	41.1	41.1	60	28.3	1	5	45	0.00	30.322 
10:25	41.3	41.3	41.3	61	28.9	1	8	112	0.00	30.322 
10:30	41.3	41.3	41.3	60	28.5	2	6	90	0.00	30.324 
10:35	41.5	41.5	41.5	61	29.1	3	7	90	0.00	30.324 
10:40	41.8	41.8	41.8	62	29.7	1	5	45	0.00	30.324 
10:45	42.2	42.2	42.2	60	29.3	1	5	68	0.00	30.330 
10:50	42.3	42.3	42.3	59	29.0	1	4	112	0.00	30.330 
10:55	42.6	42.6	42.6	61	30.1	1	5	112	0.00	30.330 
11:00	42.8	42.8	42.8	59	29.5	2	6	90	0.00	30.325 
11:05	42.9	42.9	42.9	61	30.4	1	4	112	0.00	30.325 
11:10	43.2	43.2	43.2	58	29.4	2	5	112	0.00	30.325 
11:15	43.2	43.2	43.2	58	29.4	2	5	135	0.00	30.334 
11:20	43.2	43.2	43.2	57	29.0	2	6	112	0.00	30.334 
11:25	43.2	43.2	43.2	56	28.6	2	6	112	0.00	30.334 
11:30	43.3	43.3	43.3	59	29.9	2	10	22	0.00	30.340 
11:35	43.6	43.6	43.6	60	30.6	1	3	45	0.00	30.340 
11:40	43.6	43.6	43.6	58	29.8	2	6	90	0.00	30.340 
11:45	43.8	43.8	43.8	58	30.0	2	7	0	0.00	30.339 
11:50	44.1	44.1	44.1	56	29.4	2	6	90	0.00	30.339 
11:55	44.2	44.2	44.2	55	29.1	2	7	90	0.00	30.339 
12:00	44.3	44.3	44.3	56	29.6	2	11	90	0.00	30.341 
12:05	44.2	44.2	44.2	56	29.5	3	10	90	0.00	30.341 
12:10	44.3	44.3	44.3	57	30.0	1	4	22	0.00	30.341 
12:15	44.5	44.5	44.5	55	29.3	3	12	112	0.00	30.343 
12:20	44.3	42.3	44.3	54	28.7	4	11	90	0.00	30.343 
12:25	44.6	44.6	44.6	58	30.7	3	11	112	0.00	30.343 
12:30	44.8	44.8	44.8	57	30.5	3	8	90	0.00	30.341 
12:35	45.1	45.1	45.1	55	29.9	2	9	135	0.00	30.341 
12:40	45.2	45.2	45.2	56	30.4	2	6	112	0.00	30.341 
12:45	45.8	45.8	45.8	55	30.6	3	9	112	0.00	30.340 
12:50	46.2	46.2	46.2	52	29.6	2	6	112	0.00	30.340 
12:55	46.1	46.1	46.1	47	27.0	3	10	90	0.00	30.340 
13:00	46.0	46.0	46.0	48	27.4	3	10	90	0.00	30.335 
13:05	45.8	44.0	45.8	51	28.7	4	10	112	0.00	30.335 
13:10	45.8	43.3	45.8	49	27.7	5	12	112	0.00	30.335 
13:15	45.7	45.7	45.7	53	29.6	3	8	90	0.00	30.338 
13:20	46.1	46.1	46.1	49	28.0	3	8	90	0.00	30.338 
13:25	46.4	44.7	46.4	47	27.3	4	12	90	0.00	30.338 
13:30	46.2	46.2	46.2	49	28.1	3	9	90	0.00	30.337 
13:35	46.7	46.7	46.7	50	29.1	2	7	112	0.00	30.337 
13:40	46.5	44.1	46.5	47	27.4	5	13	112	0.00	30.337 
13:45	46.7	46.7	46.7	50	29.1	3	10	112	0.00	30.334 
13:50	47.0	47.0	47.0	49	28.8	2	7	112	0.00	30.334 
13:55	47.1	47.1	47.1	49	28.9	3	9	112	0.00	30.334 
14:00	47.1	47.1	47.1	49	28.9	3	7	112	0.00	30.330 
14:05	47.1	47.1	47.1	48	28.4	3	10	112	0.00	30.330 
14:10	47.0	45.4	47.0	49	28.8	4	12	112	0.00	30.330 
14:15	47.3	47.3	47.3	49	29.1	1	6	0	0.00	30.326 
14:20	47.6	47.6	47.6	49	29.4	2	7	90	0.00	30.326 
14:25	47.7	47.7	47.7	52	30.9	2	6	90	0.00	30.326 
14:30	47.9	47.9	47.9	47	28.7	2	6	112	0.00	30.339 
14:35	47.9	47.9	47.9	48	29.2	3	7	90	0.00	30.339 
14:40	47.7	46.2	47.7	48	29.0	4	9	112	0.00	30.339 
14:45	48.0	48.0	48.0	49	29.8	2	7	112	0.00	30.332 
14:50	48.3	48.3	48.3	46	28.5	2	6	112	0.00	30.332 
14:55	48.5	48.5	48.5	46	28.7	3	6	112	0.00	30.332 
15:00	48.0	46.6	48.0	43	26.6	4	9	112	0.00	30.332 
15:05	47.7	46.2	47.7	43	26.3	4	11	112	0.00	30.332 
15:10	47.6	45.4	47.6	44	26.8	5	11	112	0.00	30.332 
15:15	47.7	47.7	47.7	46	27.9	3	11	112	0.00	30.332 
15:20	47.9	47.9	47.9	43	26.5	3	9	90	0.00	30.332 
15:25	47.7	47.7	47.7	49	29.5	3	9	112	0.00	30.332 
15:30	48.2	48.2	48.2	44	27.3	2	7	112	0.00	30.328 
15:35	48.5	48.5	48.5	44	27.6	3	7	90	0.00	30.328 
15:40	48.5	48.5	48.5	44	27.6	2	7	112	0.00	30.328 
15:45	48.6	48.6	48.6	47	29.3	2	6	112	0.00	30.327 
15:50	48.8	48.8	48.8	47	29.5	2	7	112	0.00	30.327 
15:55	48.9	48.9	48.9	42	26.8	3	6	112	0.00	30.327 
16:00	48.8	48.8	48.8	43	27.3	1	6	112	0.00	30.323 
16:05	48.9	48.9	48.9	45	28.5	2	9	315	0.00	30.323 
16:10	48.9	48.9	48.9	44	28.0	3	6	112	0.00	30.323 
16:15	48.8	48.8	48.8	46	28.9	2	5	90	0.00	30.325 
16:20	48.8	48.8	48.8	46	28.9	2	9	112	0.00	30.325 
16:25	48.8	48.8	48.8	46	28.9	1	6	45	0.00	30.325 
16:30	48.9	48.9	48.9	48	30.1	1	6	112	0.00	30.323 
16:35	48.8	48.8	48.8	46	28.9	3	10	112	0.00	30.323 
16:40	48.8	48.8	48.8	48	30.0	3	10	90	0.00	30.323 
16:45	48.6	48.6	48.6	45	28.2	3	8	112	0.00	30.318 
16:50	48.8	48.8	48.8	46	28.9	1	4	112	0.00	30.318 
16:55	48.8	48.8	48.8	43	27.3	3	11	90	0.00	30.318 
17:00	48.5	48.5	48.5	42	26.5	3	7	112	0.00	30.324 
17:05	48.6	48.6	48.6	41	26.0	2	5	90	0.00	30.324 
17:10	48.6	48.6	48.6	44	27.7	1	5	112	0.00	30.324 
17:15	48.6	48.6	48.6	43	27.1	1	5	112	0.00	30.319 
17:20	48.8	48.8	48.8	43	27.3	2	7	90	0.00	30.319 
17:25	48.6	48.6	48.6	45	28.2	3	9	90	0.00	30.319 
17:30	48.5	48.5	48.5	43	27.0	2	5	112	0.00	30.318 
17:35	48.3	48.3	48.3	42	26.3	3	9	112	0.00	30.318 
17:40	48.0	48.0	48.0	42	26.0	2	5	112	0.00	30.318 
17:45	48.2	48.2	48.2	41	25.6	3	7	112	0.00	30.324 
17:50	48.0	48.0	48.0	43	26.6	3	7	112	0.00	30.324 
17:55	47.9	47.9	47.9	44	27.0	3	6	112	0.00	30.324 
18:00	48.0	48.0	48.0	41	25.4	3	7	90	0.00	30.321 
18:05	48.0	48.0	48.0	43	26.6	1	5	112	0.00	30.321 
18:10	47.9	47.9	47.9	42	25.9	2	6	112	0.00	30.321 
18:15	47.9	47.9	47.9	42	25.9	1	7	90	0.00	30.325 
18:20	47.7	47.7	47.7	43	26.3	2	7	90	0.00	30.325 
18:25	47.3	47.3	47.3	44	26.5	2	4	90	0.00	30.325 
18:30	47.1	47.1	47.1	43	25.8	0	2	338	0.00	30.326 
18:35	47.0	47.0	47.0	43	25.7	3	7	90	0.00	30.326 
18:40	46.7	46.7	46.7	43	25.4	3	6	90	0.00	30.326 
18:45	46.5	46.5	46.5	44	25.8	1	5	90	0.00	30.332 
18:50	46.4	46.4	46.4	44	25.7	2	8	90	0.00	30.332 
18:55	46.2	46.2	46.2	43	25.0	3	7	112	0.00	30.332 
19:00	46.2	46.2	46.2	44	25.5	3	7	112	0.00	30.336 
19:05	46.2	46.2	46.2	44	25.5	2	5	112	0.00	30.336 
19:10	46.2	46.2	46.2	44	25.5	3	7	112	0.00	30.336 
19:15	46.1	46.1	46.1	46	26.5	1	3	135	0.00	30.336 
19:20	46.1	46.1	46.1	46	26.5	2	5	90	0.00	30.336 
19:25	46.0	46.0	46.0	44	25.3	2	7	90	0.00	30.336 
19:30	45.8	45.8	45.8	44	25.1	2	5	90	0.00	30.336 
19:35	45.7	45.7	45.7	44	25.0	2	6	90	0.00	30.336 
19:40	45.5	45.5	45.5	45	25.4	2	5	90	0.00	30.336 
19:45	45.2	45.2	45.2	45	25.1	2	3	90	0.00	30.337 
19:50	45.1	45.1	45.1	46	25.6	2	4	90	0.00	30.337 
19:55	44.9	44.9	44.9	46	25.4	2	4	90	0.00	30.337 
20:00	44.6	44.6	44.6	47	25.6	2	5	90	0.00	30.337 
20:05	44.5	44.5	44.5	48	26.0	2	4	112	0.00	30.337 
20:10	44.2	44.2	44.2	49	26.3	2	5	68	0.00	30.337 
20:15	44.1	44.1	44.1	49	26.2	2	5	90	0.00	30.339 
20:20	43.9	43.9	43.9	50	26.5	1	3	90	0.00	30.339 
20:25	43.6	43.6	43.6	50	26.2	1	5	90	0.00	30.339 
20:30	43.5	43.5	43.5	49	25.6	2	6	90	0.00	30.339 
20:35	43.2	43.2	43.2	50	25.8	1	4	90	0.00	30.339 
20:40	43.1	43.1	43.1	50	25.7	1	3	90	0.00	30.339 
20:45	42.8	42.8	42.8	50	25.5	1	2	90	0.00	30.345 
20:50	42.5	42.5	42.5	50	25.2	1	2	90	0.00	30.345 
20:55	42.2	42.2	42.2	51	25.4	1	4	90	0.00	30.345 
21:00	42.1	42.1	42.1	51	25.3	1	4	90	0.00	30.351 
21:05	41.9	41.9	41.9	51	25.1	1	4	90	0.00	30.351 
21:10	41.9	41.9	41.9	52	25.6	2	4	112	0.00	30.351 
21:15	42.1	42.1	42.1	53	26.2	2	6	112	0.00	30.353 
21:20	42.1	42.1	42.1	55	27.1	2	4	68	0.00	30.353 
21:25	41.9	41.9	41.9	56	27.4	2	6	68	0.00	30.353 
21:30	41.6	41.6	41.6	57	27.5	3	7	135	0.00	30.352 
21:35	41.5	41.5	41.5	57	27.4	3	10	90	0.00	30.352 
21:40	41.2	38.7	41.2	57	27.1	4	11	112	0.00	30.352 
21:45	41.1	41.1	41.1	58	27.5	3	7	90	0.00	30.358 
21:50	40.8	40.8	40.8	58	27.2	3	7	112	0.00	30.358 
21:55	40.5	40.5	40.5	59	27.3	3	7	112	0.00	30.358 
22:00	40.2	40.2	40.2	59	27.0	3	6	90	0.00	30.369 
22:05	40.1	40.1	40.1	60	27.3	1	6	112	0.00	30.369 
22:10	39.8	39.8	39.8	61	27.5	2	6	112	0.00	30.369 
22:15	39.6	39.6	39.6	62	27.7	2	6	90	0.00	30.372 
22:20	39.3	39.3	39.3	62	27.4	2	6	112	0.00	30.372 
22:25	39.2	39.2	39.2	62	27.3	3	5	112	0.00	30.372 
22:30	38.9	38.9	38.9	63	27.4	3	7	90	0.00	30.370 
22:35	38.8	38.8	38.8	63	27.3	3	6	112	0.00	30.370 
22:40	38.6	38.6	38.6	63	27.1	2	4	90	0.00	30.370 
22:45	38.5	38.5	38.5	62	26.6	3	6	112	0.00	30.371 
22:50	38.3	38.3	38.3	62	26.4	2	6	112	0.00	30.371 
22:55	38.0	38.0	38.0	62	26.2	2	5	90	0.00	30.371 
23:00	37.9	37.9	37.9	62	26.1	2	6	90	0.00	30.378 
23:05	37.8	37.8	37.8	62	26.0	2	5	90	0.00	30.378 
23:10	37.5	37.5	37.5	62	25.7	2	4	68	0.00	30.378 
23:15	37.3	37.3	37.3	63	25.9	2	6	90	0.00	30.371 
23:20	37.2	37.2	37.2	63	25.8	2	5	112	0.00	30.371 
23:25	37.0	37.0	37.0	64	26.0	2	4	68	0.00	30.371 
23:30	36.9	36.9	36.9	64	25.9	2	5	90	0.00	30.372 
23:35	36.8	36.8	36.8	64	25.8	2	6	90	0.00	30.372 
23:40	36.6	36.6	36.6	62	24.8	2	6	90	0.00	30.372 
23:45	36.6	36.6	36.6	62	24.8	2	5	90	0.00	30.376 
23:50	36.5	36.5	36.5	62	24.7	2	5	90	0.00	30.376 
23:55	36.5	36.5	36.5	63	25.1	2	4	112	0.00	30.376 

CoCoRaHS
IN-AL-39
A2 Web Hosting
Creative Commons License
GoDaddy
search engine by freefind advanced

loaded 2018-11-21 01:25:10 • last modified 2010-11-18 10:43:29
Privacy PolicyDisclaimer
• wx.awcolley.com is powered by PmWiki v.2002016 •
• all content (unless otherwise noted) © 2018 A W Colley